createdAt,value
2022-08-07T00:04:06.132Z,15.66
2022-08-07T00:09:16.897Z,15.57
2022-08-07T00:14:25.574Z,15.42
2022-08-07T00:19:59.670Z,15.25
2022-08-07T00:24:53.986Z,15.04
2022-08-07T00:29:55.684Z,15.01
2022-08-07T00:34:58.264Z,15.25
2022-08-07T00:39:59.917Z,15.04
2022-08-07T00:45:02.220Z,15.09
2022-08-07T00:50:20.352Z,15.17
2022-08-07T00:56:03.371Z,14.90
2022-08-07T01:00:53.765Z,14.79
2022-08-07T01:05:56.678Z,14.56
2022-08-07T01:10:58.486Z,14.69
2022-08-07T01:16:30.519Z,14.39
2022-08-07T01:21:34.295Z,14.59
2022-08-07T01:26:39.169Z,14.34
2022-08-07T01:31:48.330Z,14.44
2022-08-07T01:36:57.605Z,14.19
2022-08-07T01:42:37.910Z,14.02
2022-08-07T01:48:20.199Z,14.11
2022-08-07T01:52:49.707Z,14.12
2022-08-07T01:58:06.516Z,13.85
2022-08-07T02:03:32.117Z,14.08
2022-08-07T02:08:49.155Z,14.09
2022-08-07T02:14:02.528Z,13.91
2022-08-07T02:20:05.718Z,13.39
2022-08-07T02:24:33.247Z,13.36
2022-08-07T02:29:48.627Z,13.29
2022-08-07T02:35:00.757Z,13.45
2022-08-07T02:40:30.009Z,13.61
2022-08-07T02:45:59.001Z,13.27
2022-08-07T02:50:55.564Z,13.33
2022-08-07T02:56:03.519Z,13.36
2022-08-07T03:01:18.762Z,13.05
2022-08-07T03:06:34.878Z,12.97
2022-08-07T03:11:51.756Z,12.67
2022-08-07T03:17:00.550Z,12.64
2022-08-07T03:22:08.211Z,12.62
2022-08-07T03:27:30.858Z,12.87
2022-08-07T03:32:57.045Z,12.80
2022-08-07T03:38:04.833Z,12.45
2022-08-07T03:43:10.118Z,12.37
2022-08-07T03:48:20.778Z,12.57
2022-08-07T03:53:50.238Z,12.62
2022-08-07T03:59:06.695Z,12.38
2022-08-07T04:04:08.983Z,12.44
2022-08-07T04:09:23.032Z,12.60
2022-08-07T04:14:37.496Z,12.46
2022-08-07T04:19:52.154Z,12.41
2022-08-07T04:24:56.212Z,12.49
2022-08-07T04:30:01.990Z,12.47
2022-08-07T04:35:21.864Z,12.55
2022-08-07T04:40:26.641Z,12.60
2022-08-07T04:46:02.159Z,12.81
2022-08-07T04:51:16.333Z,12.97
2022-08-07T04:58:11.901Z,13.04
2022-08-07T05:02:02.507Z,13.09
2022-08-07T05:07:30.585Z,13.03
2022-08-07T05:12:51.554Z,13.33
2022-08-07T05:18:00.927Z,13.52
2022-08-07T05:23:16.052Z,13.58
2022-08-07T05:28:23.318Z,13.76
2022-08-07T05:33:31.448Z,14.45
2022-08-07T05:39:00.225Z,14.43
2022-08-07T05:44:12.298Z,14.32
2022-08-07T05:49:19.519Z,14.36
2022-08-07T05:54:30.623Z,14.77
2022-08-07T05:59:57.251Z,15.06
2022-08-07T06:05:10.922Z,15.56
2022-08-07T06:10:18.928Z,16.49
2022-08-07T06:15:39.101Z,17.09
2022-08-07T06:20:50.363Z,17.54
2022-08-07T06:26:14.271Z,17.71
2022-08-07T06:31:17.076Z,18.17
2022-08-07T06:36:35.007Z,18.42
2022-08-07T06:42:00.804Z,18.63
2022-08-07T06:47:27.055Z,19.47
2022-08-07T06:52:36.493Z,19.90
2022-08-07T06:57:51.999Z,19.93
2022-08-07T07:03:00.913Z,20.07
2022-08-07T07:08:06.835Z,20.59
2022-08-07T07:13:55.606Z,21.05
2022-08-07T07:19:11.210Z,20.69
2022-08-07T07:24:23.966Z,21.29
2022-08-07T07:29:56.635Z,21.27
2022-08-07T07:34:59.539Z,21.44
2022-08-07T07:40:14.951Z,21.87
2022-08-07T07:45:18.383Z,22.46
2022-08-07T07:50:35.167Z,22.55
2022-08-07T07:55:45.346Z,22.80
2022-08-07T08:00:58.662Z,22.77
2022-08-07T08:06:02.075Z,22.71
2022-08-07T08:11:08.378Z,22.96
2022-08-07T08:16:19.600Z,23.15
2022-08-07T08:21:55.322Z,22.80
2022-08-07T08:27:09.356Z,23.26
2022-08-07T08:32:18.287Z,23.73
2022-08-07T08:38:00.934Z,23.65
2022-08-07T08:42:51.564Z,24.21
2022-08-07T08:48:10.750Z,24.41
2022-08-07T08:53:25.753Z,25.08
2022-08-07T08:58:33.621Z,24.43
2022-08-07T09:03:52.989Z,24.05
2022-08-07T09:09:21.147Z,24.62
2022-08-07T09:14:39.101Z,25.48
2022-08-07T09:19:59.067Z,25.26
2022-08-07T09:25:21.755Z,25.48
2022-08-07T09:30:33.291Z,25.39
2022-08-07T09:36:00.893Z,26.23
2022-08-07T09:41:36.232Z,26.09
2022-08-07T09:47:51.888Z,26.39
2022-08-07T09:52:51.562Z,26.17
2022-08-07T09:57:56.242Z,25.89
2022-08-07T10:04:05.602Z,25.05
2022-08-07T10:09:05.570Z,24.70
2022-08-07T10:14:30.325Z,25.73
2022-08-07T10:19:43.582Z,26.85
2022-08-07T10:25:11.302Z,26.93
2022-08-07T10:30:42.199Z,27.27
2022-08-07T10:36:11.269Z,26.72
2022-08-07T10:41:52.310Z,26.65
2022-08-07T10:47:14.181Z,27.79
2022-08-07T10:52:31.890Z,28.04
2022-08-07T10:58:33.099Z,27.73
2022-08-07T11:03:54.958Z,28.13
2022-08-07T11:09:11.659Z,27.74
2022-08-07T11:14:44.285Z,27.74
2022-08-07T11:20:14.634Z,27.37
2022-08-07T11:25:30.615Z,27.19
2022-08-07T11:30:52.311Z,26.84
2022-08-07T11:36:30.796Z,28.03
2022-08-07T11:42:02.050Z,28.37
2022-08-07T11:47:13.894Z,28.49
2022-08-07T11:53:06.656Z,28.82
2022-08-07T11:58:33.705Z,28.77
2022-08-07T12:03:41.834Z,28.76
2022-08-07T12:09:01.669Z,28.84
2022-08-07T12:14:19.086Z,28.22
2022-08-07T12:19:56.514Z,28.04
2022-08-07T12:26:21.523Z,28.43
2022-08-07T12:30:53.184Z,28.03
2022-08-07T12:35:57.747Z,27.87
2022-08-07T12:41:02.687Z,28.49
2022-08-07T12:46:26.617Z,27.97
2022-08-07T12:51:52.710Z,28.05
2022-08-07T12:57:10.342Z,27.69
2022-08-07T13:02:50.297Z,26.91
2022-08-07T13:08:13.392Z,27.44
2022-08-07T13:13:59.594Z,27.67
2022-08-07T13:19:18.121Z,27.17
2022-08-07T13:24:29.417Z,27.04
2022-08-07T13:29:56.189Z,26.79
2022-08-07T13:35:59.637Z,26.69
2022-08-07T13:41:09.264Z,26.89
2022-08-07T13:46:25.478Z,26.77
2022-08-07T13:52:22.318Z,26.85
2022-08-07T13:56:59.744Z,26.64
2022-08-07T14:02:10.424Z,26.36
2022-08-07T14:07:13.464Z,25.54
2022-08-07T14:12:41.492Z,25.48
2022-08-07T14:18:12.689Z,25.43
2022-08-07T14:23:58.937Z,25.61
2022-08-07T14:28:56.002Z,25.66
2022-08-07T14:34:01.906Z,25.44
2022-08-07T14:39:12.480Z,25.48
2022-08-07T14:44:33.723Z,25.70
2022-08-07T14:49:57.450Z,25.90
2022-08-07T14:55:01.539Z,25.67
2022-08-07T15:00:06.981Z,25.64
2022-08-07T15:05:20.617Z,25.51
2022-08-07T15:10:29.814Z,25.60
2022-08-07T15:15:40.619Z,25.58
2022-08-07T15:20:54.981Z,25.40
2022-08-07T15:25:59.800Z,25.12
2022-08-07T15:31:05.849Z,25.30
2022-08-07T15:36:09.405Z,25.32
2022-08-07T15:46:51.762Z,25.18
2022-08-07T15:57:00.870Z,27.43
2022-08-07T16:02:05.317Z,28.32
2022-08-07T16:08:32.499Z,27.79
2022-08-07T16:12:40.554Z,27.12
2022-08-07T16:18:50.004Z,26.07
2022-08-07T16:24:00.599Z,25.44
2022-08-07T16:30:10.125Z,25.13
2022-08-07T16:35:51.663Z,24.88
2022-08-07T16:41:04.541Z,24.90
2022-08-07T16:47:06.815Z,24.88
2022-08-07T16:52:51.731Z,24.64
2022-08-07T16:58:02.958Z,24.57
2022-08-07T17:03:57.695Z,24.39
2022-08-07T17:09:14.282Z,24.30
2022-08-07T17:14:33.009Z,24.38
2022-08-07T17:20:02.681Z,24.25
2022-08-07T17:25:18.458Z,24.09
2022-08-07T17:30:27.154Z,24.07
2022-08-07T17:35:57.444Z,24.01
2022-08-07T17:42:04.786Z,23.95
2022-08-07T17:46:53.239Z,23.88
2022-08-07T17:52:10.615Z,23.63
2022-08-07T17:57:59.175Z,23.67
2022-08-07T18:04:03.964Z,23.42
2022-08-07T18:09:05.834Z,23.28
2022-08-07T18:14:16.483Z,23.21
2022-08-07T18:21:09.769Z,23.25
2022-08-07T18:24:59.004Z,23.12
2022-08-07T18:30:31.391Z,23.03
2022-08-07T18:35:50.281Z,22.70
2022-08-07T18:41:45.048Z,22.51
2022-08-07T18:47:06.380Z,22.52
2022-08-07T18:52:53.064Z,22.36
2022-08-07T18:58:14.349Z,22.14
2022-08-07T19:03:37.902Z,22.04
2022-08-07T19:08:46.391Z,22.07
2022-08-07T19:14:11.661Z,21.94
2022-08-07T19:19:37.613Z,21.61
2022-08-07T19:24:44.673Z,21.49
2022-08-07T19:31:05.119Z,21.36
2022-08-07T19:35:19.314Z,21.35
2022-08-07T19:40:34.688Z,21.15
2022-08-07T19:46:09.286Z,21.39
2022-08-07T19:51:05.196Z,20.86
2022-08-07T19:57:51.611Z,20.75
2022-08-07T20:01:57.986Z,20.66
2022-08-07T20:07:00.833Z,20.30
2022-08-07T20:12:31.371Z,20.08
2022-08-07T20:17:26.735Z,20.17
2022-08-07T20:22:34.491Z,19.96
2022-08-07T20:27:46.440Z,19.89
2022-08-07T20:32:54.724Z,19.39
2022-08-07T20:37:59.439Z,19.24
2022-08-07T20:43:14.692Z,19.14
2022-08-07T20:48:30.304Z,19.21
2022-08-07T20:54:03.370Z,19.19
2022-08-07T20:59:01.374Z,18.80
2022-08-07T21:04:22.091Z,18.63
2022-08-07T21:09:52.398Z,18.81
2022-08-07T21:15:05.933Z,18.67
2022-08-07T21:20:26.719Z,18.57
2022-08-07T21:25:42.644Z,18.36
2022-08-07T21:31:02.937Z,18.33
2022-08-07T21:36:11.789Z,17.95
2022-08-07T21:41:38.224Z,18.10
2022-08-07T21:47:12.460Z,18.16
2022-08-07T21:52:33.572Z,17.96
2022-08-07T21:58:12.635Z,17.80
2022-08-07T22:03:46.242Z,17.61
2022-08-07T22:08:58.787Z,17.55
2022-08-07T22:14:05.219Z,17.36
2022-08-07T22:19:29.994Z,17.14
2022-08-07T22:24:41.199Z,17.21
2022-08-07T22:29:55.556Z,16.86
2022-08-07T22:35:02.091Z,17.06
2022-08-07T22:40:22.656Z,16.89
2022-08-07T22:46:21.764Z,16.81
2022-08-07T22:51:43.205Z,16.55
2022-08-07T22:57:05.249Z,16.60
2022-08-07T23:02:13.668Z,16.42
2022-08-07T23:07:42.128Z,16.40
2022-08-07T23:13:14.491Z,16.36
2022-08-07T23:19:13.755Z,16.37
2022-08-07T23:24:50.714Z,16.67
2022-08-07T23:30:38.933Z,16.60
2022-08-07T23:35:55.586Z,16.22
2022-08-07T23:42:01.798Z,16.21
2022-08-07T23:47:22.752Z,16.07
2022-08-07T23:53:01.106Z,16.05
2022-08-07T23:58:18.495Z,16.17
